Time;durP1;ratioP1;P1;durP2;ratioP2;P2;SDS_P1;SDS_P2;PMS_P1;PMS_P2;Temp;Humidity;BMP_temperature;BMP_pressure;BME280_temperature;BME280_humidity;BME280_pressure;Samples;Min_cycle;Max_cycle;Signal;HPM_P1;HPM_P2
2022/03/27 00:02:23;;;;;;;14.32;8.70;;;;;;;;;;5045450;28;20025;-47
2022/03/27 00:04:49;;;;;;;17.48;10.38;;;;;;;;;;5040566;28;20037;-46
2022/03/27 00:07:15;;;;;;;14.07;9.43;;;;;;;;;;5045673;28;20025;-48
2022/03/27 00:09:41;;;;;;;18.95;10.07;;;;;;;;;;5037707;28;20454;-47
2022/03/27 00:12:08;;;;;;;14.15;9.50;;;;;;;;;;5038032;28;20103;-48
2022/03/27 00:14:34;;;;;;;15.13;9.40;;;;;;;;;;5036803;28;20104;-49
2022/03/27 00:17:00;;;;;;;15.02;9.40;;;;;;;;;;5039927;28;20033;-49
2022/03/27 00:19:26;;;;;;;14.98;9.43;;;;;;;;;;5037406;28;20040;-47
2022/03/27 00:21:52;;;;;;;19.88;10.15;;;;;;;;;;5035512;28;20048;-46
2022/03/27 00:24:17;;;;;;;17.23;9.00;;;;;;;;;;5040293;28;20041;-46
2022/03/27 00:26:43;;;;;;;14.82;9.85;;;;;;;;;;5040552;28;20116;-50
2022/03/27 00:29:10;;;;;;;13.57;8.77;;;;;;;;;;5039650;28;20025;-46
2022/03/27 00:31:38;;;;;;;14.57;9.00;;;;;;;;;;5037919;28;20083;-47
2022/03/27 00:34:04;;;;;;;16.33;10.60;;;;;;;;;;5039108;28;20090;-47
2022/03/27 00:36:30;;;;;;;14.32;9.20;;;;;;;;;;5034301;28;20446;-47
2022/03/27 00:38:56;;;;;;;16.10;9.90;;;;;;;;;;5036914;28;20099;-46
2022/03/27 00:41:24;;;;;;;17.83;10.50;;;;;;;;;;5037920;28;20029;-48
2022/03/27 00:43:50;;;;;;;14.57;8.88;;;;;;;;;;5034736;28;20104;-46
2022/03/27 00:46:16;;;;;;;15.20;9.80;;;;;;;;;;5037610;28;20034;-45
2022/03/27 00:48:42;;;;;;;16.92;9.77;;;;;;;;;;5038936;28;20513;-46
2022/03/27 00:51:08;;;;;;;16.75;10.75;;;;;;;;;;5043194;28;20108;-47
2022/03/27 00:53:34;;;;;;;18.48;10.60;;;;;;;;;;5039195;28;20438;-45
2022/03/27 00:56:00;;;;;;;17.45;10.45;;;;;;;;;;5039234;28;20026;-47
2022/03/27 00:58:26;;;;;;;15.63;9.73;;;;;;;;;;5040540;28;20044;-46
2022/03/27 01:01:13;;;;;;;18.60;11.27;;;;;;;;;;5041666;28;20056;-50
2022/03/27 01:03:39;;;;;;;16.33;10.75;;;;;;;;;;5040245;28;20028;-48
2022/03/27 01:06:10;;;;;;;17.20;10.13;;;;;;;;;;5040795;28;20079;-47
2022/03/27 01:11:21;;;;;;;18.05;10.88;;;;;;;;;;5039226;28;20123;-46
2022/03/27 01:13:53;;;;;;;17.80;11.43;;;;;;;;;;5040972;28;20029;-46
2022/03/27 01:16:37;;;;;;;16.00;10.18;;;;;;;;;;5037134;28;20033;-46
2022/03/27 01:19:04;;;;;;;16.02;9.95;;;;;;;;;;5038876;28;20033;-47
2022/03/27 01:21:31;;;;;;;15.85;10.35;;;;;;;;;;5034601;28;20034;-46
2022/03/27 01:23:57;;;;;;;19.50;11.25;;;;;;;;;;5047451;28;20672;-47
2022/03/27 01:26:23;;;;;;;13.70;9.25;;;;;;;;;;5046276;28;20135;-46
2022/03/27 01:28:50;;;;;;;14.18;9.43;;;;;;;;;;5042560;28;20079;-46
2022/03/27 01:31:17;;;;;;;13.90;9.00;;;;;;;;;;5038321;28;20404;-46
2022/03/27 01:33:44;;;;;;;16.85;10.48;;;;;;;;;;5040740;28;20412;-47
2022/03/27 01:36:09;;;;;;;14.55;9.02;;;;;;;;;;5037581;28;20025;-46
2022/03/27 01:38:35;;;;;;;13.18;9.25;;;;;;;;;;5043268;28;20029;-45
2022/03/27 01:41:01;;;;;;;20.83;10.02;;;;;;;;;;5042186;28;20029;-48
2022/03/27 01:43:27;;;;;;;17.48;10.25;;;;;;;;;;5041580;28;20026;-45
2022/03/27 01:45:54;;;;;;;17.05;10.60;;;;;;;;;;5044096;28;20029;-47
2022/03/27 01:48:19;;;;;;;16.63;10.13;;;;;;;;;;5036880;28;20087;-45
2022/03/27 01:50:57;;;;;;;18.92;11.20;;;;;;;;;;5043245;28;20025;-46
2022/03/27 01:53:23;;;;;;;18.30;10.95;;;;;;;;;;5045208;28;20108;-47
2022/03/27 01:55:49;;;;;;;17.58;11.07;;;;;;;;;;5045635;28;20459;-49
2022/03/27 01:58:15;;;;;;;17.48;11.18;;;;;;;;;;5038530;28;20667;-49
2022/03/27 02:00:43;;;;;;;19.85;11.93;;;;;;;;;;5042765;28;20055;-46
2022/03/27 02:03:09;;;;;;;17.20;11.07;;;;;;;;;;5043622;28;20087;-47
2022/03/27 02:05:35;;;;;;;18.45;11.60;;;;;;;;;;5040570;28;20025;-45
2022/03/27 02:08:01;;;;;;;18.73;12.00;;;;;;;;;;5038956;28;20028;-45
2022/03/27 02:10:27;;;;;;;19.27;11.23;;;;;;;;;;5041220;28;20173;-45
2022/03/27 02:12:53;;;;;;;20.38;11.40;;;;;;;;;;5038182;28;20622;-46
2022/03/27 02:15:19;;;;;;;17.48;11.65;;;;;;;;;;5040597;28;20507;-46
2022/03/27 02:17:45;;;;;;;19.33;10.80;;;;;;;;;;5041845;28;20123;-47
2022/03/27 02:20:12;;;;;;;18.85;10.55;;;;;;;;;;5045755;28;20068;-47
2022/03/27 02:22:38;;;;;;;18.27;10.73;;;;;;;;;;5039551;28;20095;-45
2022/03/27 02:25:05;;;;;;;17.98;11.27;;;;;;;;;;5038830;28;20116;-47
2022/03/27 02:27:31;;;;;;;17.63;10.90;;;;;;;;;;5043843;28;20029;-45
2022/03/27 02:29:57;;;;;;;16.77;10.02;;;;;;;;;;5043841;28;20034;-46
2022/03/27 02:32:23;;;;;;;16.98;11.07;;;;;;;;;;5035871;28;20032;-48
2022/03/27 02:34:49;;;;;;;23.08;11.05;;;;;;;;;;5035859;28;20038;-46
2022/03/27 02:37:15;;;;;;;18.67;10.85;;;;;;;;;;5041773;28;20029;-46
2022/03/27 02:39:41;;;;;;;16.15;9.85;;;;;;;;;;5043749;28;20029;-46
2022/03/27 02:42:07;;;;;;;18.00;10.20;;;;;;;;;;5039642;28;20025;-46
2022/03/27 02:44:33;;;;;;;18.08;10.02;;;;;;;;;;5044135;28;20029;-45
2022/03/27 02:46:59;;;;;;;16.77;10.27;;;;;;;;;;5040575;28;20424;-46
2022/03/27 02:49:25;;;;;;;19.80;10.93;;;;;;;;;;5042732;28;20116;-45
2022/03/27 02:51:51;;;;;;;18.27;10.98;;;;;;;;;;5039585;28;20025;-48
2022/03/27 02:54:17;;;;;;;19.20;10.13;;;;;;;;;;5036671;28;20057;-50
2022/03/27 02:56:43;;;;;;;14.95;11.07;;;;;;;;;;5044939;28;20502;-49
2022/03/27 02:59:09;;;;;;;17.73;10.77;;;;;;;;;;5042560;28;20057;-46
2022/03/27 03:01:36;;;;;;;20.17;11.98;;;;;;;;;;5041240;28;20409;-50
2022/03/27 03:04:02;;;;;;;17.33;10.95;;;;;;;;;;5038942;28;20029;-46
2022/03/27 03:06:30;;;;;;;16.90;10.98;;;;;;;;;;5037832;28;20409;-46
2022/03/27 03:08:55;;;;;;;17.15;10.98;;;;;;;;;;5038004;28;20025;-45
2022/03/27 03:11:21;;;;;;;15.63;10.20;;;;;;;;;;5044827;28;20109;-46
2022/03/27 03:13:49;;;;;;;19.20;10.43;;;;;;;;;;5047025;28;20036;-46
2022/03/27 03:16:16;;;;;;;18.27;10.60;;;;;;;;;;5043910;28;20038;-46
2022/03/27 03:18:43;;;;;;;17.13;11.45;;;;;;;;;;5033424;28;20045;-48
2022/03/27 03:21:09;;;;;;;16.58;10.32;;;;;;;;;;5046257;28;20063;-45
2022/03/27 03:23:36;;;;;;;22.83;12.55;;;;;;;;;;5041548;28;20035;-47
2022/03/27 03:26:02;;;;;;;24.15;12.55;;;;;;;;;;5039025;28;20114;-47
2022/03/27 03:28:28;;;;;;;28.73;13.77;;;;;;;;;;5036854;28;20591;-47
2022/03/27 03:30:54;;;;;;;26.58;12.88;;;;;;;;;;5037515;28;20041;-47
2022/03/27 03:33:20;;;;;;;24.80;13.40;;;;;;;;;;5044274;28;20056;-46
2022/03/27 03:35:46;;;;;;;26.50;14.45;;;;;;;;;;5041159;28;20056;-46
2022/03/27 03:38:12;;;;;;;25.50;14.00;;;;;;;;;;5045331;28;20025;-47
2022/03/27 03:40:40;;;;;;;28.17;14.60;;;;;;;;;;5037856;28;20036;-46
2022/03/27 03:43:06;;;;;;;24.63;13.23;;;;;;;;;;5040053;28;20024;-47
2022/03/27 03:45:32;;;;;;;29.38;15.38;;;;;;;;;;5041406;28;20064;-46
2022/03/27 03:47:59;;;;;;;23.05;12.70;;;;;;;;;;5037549;28;20025;-47
2022/03/27 03:50:25;;;;;;;24.05;13.77;;;;;;;;;;5035167;28;20022;-49
2022/03/27 03:52:51;;;;;;;26.33;14.68;;;;;;;;;;5039321;28;20366;-47
2022/03/27 03:55:17;;;;;;;24.58;13.45;;;;;;;;;;5046011;28;20430;-47
2022/03/27 03:57:43;;;;;;;25.95;14.77;;;;;;;;;;5035687;28;20485;-46
2022/03/27 04:00:10;;;;;;;25.02;14.68;;;;;;;;;;5038698;28;20040;-46
2022/03/27 04:02:36;;;;;;;26.13;14.02;;;;;;;;;;5041971;28;20033;-50
2022/03/27 04:05:02;;;;;;;21.95;13.00;;;;;;;;;;5038066;28;20033;-46
2022/03/27 04:07:28;;;;;;;24.08;13.07;;;;;;;;;;5042716;28;20473;-48
2022/03/27 04:09:54;;;;;;;20.50;12.52;;;;;;;;;;5046284;28;20032;-47
2022/03/27 04:12:20;;;;;;;22.15;13.02;;;;;;;;;;5037947;28;20096;-46
2022/03/27 04:14:46;;;;;;;20.65;12.80;;;;;;;;;;5037252;28;20087;-48
2022/03/27 04:17:12;;;;;;;20.58;12.30;;;;;;;;;;5035241;28;20025;-47
2022/03/27 04:19:40;;;;;;;23.52;13.45;;;;;;;;;;5037041;28;20049;-49
2022/03/27 04:22:06;;;;;;;20.42;12.85;;;;;;;;;;5044171;28;20025;-47
2022/03/27 04:24:32;;;;;;;21.88;12.52;;;;;;;;;;5048132;28;20056;-48
2022/03/27 04:26:58;;;;;;;23.58;13.60;;;;;;;;;;5041466;28;20037;-48
2022/03/27 04:29:24;;;;;;;23.25;12.88;;;;;;;;;;5045785;28;20032;-47
2022/03/27 04:31:51;;;;;;;22.13;11.95;;;;;;;;;;5044348;28;20035;-47
2022/03/27 04:34:17;;;;;;;21.70;12.52;;;;;;;;;;5044988;28;20079;-46
2022/03/27 04:36:43;;;;;;;22.73;12.98;;;;;;;;;;5041423;28;20533;-45
2022/03/27 04:39:10;;;;;;;22.40;12.43;;;;;;;;;;5049171;28;20092;-47
2022/03/27 04:41:36;;;;;;;20.73;11.93;;;;;;;;;;5037621;28;20033;-47
2022/03/27 04:44:03;;;;;;;24.58;13.32;;;;;;;;;;5045396;28;20040;-48
2022/03/27 04:46:29;;;;;;;20.50;11.77;;;;;;;;;;5045406;28;20041;-46
2022/03/27 04:48:55;;;;;;;19.30;12.07;;;;;;;;;;5050323;28;20086;-46
2022/03/27 04:51:21;;;;;;;21.30;12.52;;;;;;;;;;5040298;28;20041;-46
2022/03/27 04:53:48;;;;;;;17.60;11.57;;;;;;;;;;5036089;28;20029;-47
2022/03/27 04:56:14;;;;;;;20.52;12.15;;;;;;;;;;5040708;28;20037;-46
2022/03/27 04:58:40;;;;;;;17.95;11.23;;;;;;;;;;5041653;28;20024;-46
2022/03/27 05:01:07;;;;;;;20.08;11.43;;;;;;;;;;5045910;28;20389;-46
2022/03/27 05:03:33;;;;;;;22.20;13.15;;;;;;;;;;5039207;28;20029;-46
2022/03/27 05:05:59;;;;;;;23.40;12.73;;;;;;;;;;5041774;28;20033;-46
2022/03/27 05:08:25;;;;;;;19.45;11.32;;;;;;;;;;5042654;28;20154;-48
2022/03/27 05:10:51;;;;;;;21.10;12.77;;;;;;;;;;5046052;28;20063;-46
2022/03/27 05:13:18;;;;;;;25.98;13.65;;;;;;;;;;5039272;28;20339;-50
2022/03/27 05:15:44;;;;;;;22.35;12.18;;;;;;;;;;5041196;28;20478;-48
2022/03/27 05:18:10;;;;;;;22.25;12.05;;;;;;;;;;5037560;28;20028;-47
2022/03/27 05:20:38;;;;;;;25.25;13.07;;;;;;;;;;5045973;28;20531;-49
2022/03/27 05:23:04;;;;;;;23.05;13.00;;;;;;;;;;5046121;28;20043;-47
2022/03/27 05:25:38;;;;;;;26.60;13.80;;;;;;;;;;5047266;28;20100;-50
2022/03/27 05:28:05;;;;;;;29.35;13.65;;;;;;;;;;5042605;28;20021;-47
2022/03/27 05:30:32;;;;;;;20.85;12.75;;;;;;;;;;5042815;28;20099;-47
2022/03/27 05:32:58;;;;;;;22.98;13.35;;;;;;;;;;5045752;28;20584;-46
2022/03/27 05:35:25;;;;;;;24.75;12.93;;;;;;;;;;5043247;28;20121;-47
2022/03/27 05:37:52;;;;;;;23.38;12.88;;;;;;;;;;5045246;28;20025;-48
2022/03/27 05:40:19;;;;;;;18.75;10.88;;;;;;;;;;5040406;28;20086;-48
2022/03/27 05:42:46;;;;;;;21.73;12.65;;;;;;;;;;5035110;28;20029;-49
2022/03/27 05:45:12;;;;;;;22.67;12.27;;;;;;;;;;5044658;28;20525;-49
2022/03/27 05:47:41;;;;;;;17.20;11.23;;;;;;;;;;5042892;28;20088;-46
2022/03/27 05:50:07;;;;;;;19.45;11.77;;;;;;;;;;5038807;28;20010;-46
2022/03/27 05:52:34;;;;;;;20.42;12.32;;;;;;;;;;5042857;28;20532;-47
2022/03/27 05:55:00;;;;;;;21.52;13.07;;;;;;;;;;5035779;28;20060;-48
2022/03/27 05:57:26;;;;;;;20.13;10.95;;;;;;;;;;5042890;28;20025;-47
2022/03/27 05:59:52;;;;;;;16.92;10.80;;;;;;;;;;5037897;28;20032;-46
2022/03/27 06:02:18;;;;;;;19.42;11.20;;;;;;;;;;5044371;28;20043;-49
2022/03/27 06:04:44;;;;;;;17.15;11.30;;;;;;;;;;5039773;28;20030;-46
2022/03/27 06:07:10;;;;;;;16.27;10.63;;;;;;;;;;5041514;28;20041;-46
2022/03/27 06:09:36;;;;;;;17.33;10.77;;;;;;;;;;5043597;28;20183;-46
2022/03/27 06:12:03;;;;;;;16.85;10.65;;;;;;;;;;5044213;28;20373;-46
2022/03/27 06:14:30;;;;;;;18.10;10.90;;;;;;;;;;5045602;28;20025;-49
2022/03/27 06:16:56;;;;;;;19.48;11.68;;;;;;;;;;5036102;28;20041;-46
2022/03/27 06:19:22;;;;;;;18.52;10.50;;;;;;;;;;5040232;28;20041;-47
2022/03/27 06:21:48;;;;;;;18.85;11.05;;;;;;;;;;5044886;28;20095;-49
2022/03/27 06:24:14;;;;;;;19.80;10.77;;;;;;;;;;5044898;28;20029;-47
2022/03/27 06:26:40;;;;;;;16.38;10.50;;;;;;;;;;5045449;28;20056;-49
2022/03/27 06:29:09;;;;;;;15.23;10.48;;;;;;;;;;5036436;28;20493;-51
2022/03/27 06:31:35;;;;;;;16.83;10.73;;;;;;;;;;5047160;28;20025;-49
2022/03/27 06:34:01;;;;;;;16.13;9.98;;;;;;;;;;5046622;28;20365;-49
2022/03/27 06:36:27;;;;;;;18.58;11.02;;;;;;;;;;5035980;28;20109;-47
2022/03/27 06:38:53;;;;;;;17.25;11.00;;;;;;;;;;5039804;28;20473;-48
2022/03/27 06:41:19;;;;;;;16.48;10.05;;;;;;;;;;5033864;28;20432;-50
2022/03/27 06:43:45;;;;;;;16.58;10.43;;;;;;;;;;5047036;28;20032;-46
2022/03/27 06:46:15;;;;;;;15.88;9.70;;;;;;;;;;5044924;28;20508;-47
2022/03/27 06:48:41;;;;;;;15.60;10.07;;;;;;;;;;5040381;28;20110;-46
2022/03/27 06:51:07;;;;;;;15.07;10.07;;;;;;;;;;5044875;28;20047;-49
2022/03/27 06:53:33;;;;;;;15.27;9.68;;;;;;;;;;5042343;28;20625;-47
2022/03/27 06:55:59;;;;;;;15.05;9.57;;;;;;;;;;5035511;28;20049;-47
2022/03/27 06:58:25;;;;;;;15.00;10.30;;;;;;;;;;5043511;28;20033;-46
2022/03/27 07:03:36;;;;;;;14.73;9.48;;;;;;;;;;5037732;28;20102;-46
2022/03/27 07:06:02;;;;;;;16.17;9.82;;;;;;;;;;5035801;28;20064;-51
2022/03/27 07:08:28;;;;;;;16.88;10.80;;;;;;;;;;5050678;28;20393;-47
2022/03/27 07:10:55;;;;;;;14.95;8.90;;;;;;;;;;5051270;28;20102;-47
2022/03/27 07:13:21;;;;;;;14.77;9.70;;;;;;;;;;5041440;28;20413;-50
2022/03/27 07:15:48;;;;;;;16.80;10.45;;;;;;;;;;5043657;28;20037;-49
2022/03/27 07:18:15;;;;;;;13.43;9.95;;;;;;;;;;5039520;28;20440;-46
2022/03/27 07:20:42;;;;;;;13.45;9.10;;;;;;;;;;5034974;28;20104;-48
2022/03/27 07:23:09;;;;;;;13.73;8.90;;;;;;;;;;5032137;28;20053;-49
2022/03/27 07:25:38;;;;;;;15.60;8.90;;;;;;;;;;5045110;28;20088;-47
2022/03/27 07:28:05;;;;;;;13.55;9.13;;;;;;;;;;5038627;28;20156;-47
2022/03/27 07:30:31;;;;;;;12.73;8.68;;;;;;;;;;5030234;28;20033;-46
2022/03/27 07:32:57;;;;;;;16.30;9.50;;;;;;;;;;5044978;28;20124;-47
2022/03/27 07:35:26;;;;;;;17.27;9.35;;;;;;;;;;5033959;28;20037;-47
2022/03/27 07:37:52;;;;;;;15.77;10.27;;;;;;;;;;5042282;28;20040;-49
2022/03/27 07:40:19;;;;;;;17.35;10.52;;;;;;;;;;5033440;28;20033;-46
2022/03/27 07:42:50;;;;;;;14.68;10.02;;;;;;;;;;5035903;28;20025;-49
2022/03/27 07:45:18;;;;;;;19.27;11.40;;;;;;;;;;5036133;28;20040;-48
2022/03/27 07:47:44;;;;;;;22.33;12.30;;;;;;;;;;5039309;28;20056;-48
2022/03/27 07:50:11;;;;;;;21.85;11.90;;;;;;;;;;5039218;28;20053;-51
2022/03/27 07:52:37;;;;;;;19.88;11.77;;;;;;;;;;5041069;28;20618;-49
2022/03/27 07:55:04;;;;;;;19.25;10.50;;;;;;;;;;5036788;28;20524;-48
2022/03/27 07:57:30;;;;;;;20.83;11.13;;;;;;;;;;5033843;28;20025;-49
2022/03/27 07:59:56;;;;;;;21.17;11.75;;;;;;;;;;5032803;28;20033;-51
2022/03/27 08:02:22;;;;;;;17.92;10.70;;;;;;;;;;5041645;28;20378;-47
2022/03/27 08:04:49;;;;;;;20.05;10.63;;;;;;;;;;5044568;28;20040;-49
2022/03/27 08:07:15;;;;;;;14.65;9.18;;;;;;;;;;5032701;28;20102;-49
2022/03/27 08:09:41;;;;;;;15.50;9.13;;;;;;;;;;5040733;28;20460;-47
2022/03/27 08:12:08;;;;;;;14.45;9.75;;;;;;;;;;5034522;28;20086;-47
2022/03/27 08:14:35;;;;;;;14.55;8.57;;;;;;;;;;5047451;28;20033;-49
2022/03/27 08:17:01;;;;;;;16.58;8.77;;;;;;;;;;5031891;28;20025;-47
2022/03/27 08:19:27;;;;;;;13.48;8.77;;;;;;;;;;5039994;28;20021;-51
2022/03/27 08:21:53;;;;;;;14.52;8.05;;;;;;;;;;5035933;28;20090;-48
2022/03/27 08:24:19;;;;;;;13.75;8.73;;;;;;;;;;5040355;28;20525;-49
2022/03/27 08:26:59;;;;;;;15.40;9.27;;;;;;;;;;5039707;28;20033;-47
2022/03/27 08:29:27;;;;;;;12.85;7.80;;;;;;;;;;5043456;28;20172;-47
2022/03/27 08:31:53;;;;;;;13.60;8.15;;;;;;;;;;5037988;28;20108;-48
2022/03/27 08:34:20;;;;;;;13.85;8.02;;;;;;;;;;5046207;28;20064;-48
2022/03/27 08:36:46;;;;;;;15.13;7.80;;;;;;;;;;5038828;28;20104;-47
2022/03/27 08:39:12;;;;;;;13.23;7.40;;;;;;;;;;5040640;28;20036;-48
2022/03/27 08:41:45;;;;;;;12.20;7.63;;;;;;;;;;5034232;28;20037;-48
2022/03/27 08:44:12;;;;;;;14.02;7.95;;;;;;;;;;5039244;28;20029;-47
2022/03/27 08:46:39;;;;;;;12.23;7.47;;;;;;;;;;5040149;28;20058;-51
2022/03/27 08:49:10;;;;;;;12.27;7.07;;;;;;;;;;5034695;28;20033;-47
2022/03/27 08:51:41;;;;;;;13.80;7.85;;;;;;;;;;5041986;28;20033;-49
2022/03/27 08:54:09;;;;;;;16.30;7.95;;;;;;;;;;5035988;28;20042;-47
2022/03/27 08:56:35;;;;;;;11.75;6.65;;;;;;;;;;5034017;28;20043;-50
2022/03/27 08:59:09;;;;;;;11.57;5.82;;;;;;;;;;5039761;28;20029;-48
2022/03/27 09:01:35;;;;;;;9.40;5.82;;;;;;;;;;5031708;28;20117;-48
2022/03/27 09:04:02;;;;;;;8.70;5.45;;;;;;;;;;5032564;28;20033;-51
2022/03/27 09:06:28;;;;;;;7.95;5.05;;;;;;;;;;5035521;28;20042;-48
2022/03/27 09:08:54;;;;;;;10.52;5.75;;;;;;;;;;5038418;28;20029;-47
2022/03/27 09:11:21;;;;;;;10.55;5.70;;;;;;;;;;5042332;28;20347;-49
2022/03/27 09:13:48;;;;;;;8.25;5.22;;;;;;;;;;5032876;28;20036;-47
2022/03/27 09:16:15;;;;;;;9.07;4.65;;;;;;;;;;5041783;28;20032;-50
2022/03/27 09:18:42;;;;;;;7.95;5.10;;;;;;;;;;5036779;28;20091;-48
2022/03/27 09:21:08;;;;;;;8.00;4.90;;;;;;;;;;5041065;28;20040;-47
2022/03/27 09:23:38;;;;;;;7.40;4.93;;;;;;;;;;5035186;28;20037;-49
2022/03/27 09:26:06;;;;;;;6.85;4.22;;;;;;;;;;5053948;28;20122;-48
2022/03/27 09:28:32;;;;;;;5.85;3.83;;;;;;;;;;5041458;28;20540;-50
2022/03/27 09:31:00;;;;;;;6.07;3.90;;;;;;;;;;5045138;28;20083;-48
2022/03/27 09:33:31;;;;;;;7.03;4.35;;;;;;;;;;5041391;28;20030;-47
2022/03/27 09:36:03;;;;;;;7.07;4.35;;;;;;;;;;5045340;28;20381;-49
2022/03/27 09:38:29;;;;;;;7.55;4.78;;;;;;;;;;5048565;28;20119;-49
2022/03/27 09:40:55;;;;;;;7.07;4.15;;;;;;;;;;5043751;28;20029;-47
2022/03/27 09:43:22;;;;;;;5.20;3.67;;;;;;;;;;5052634;28;20376;-53
2022/03/27 09:45:58;;;;;;;5.13;3.75;;;;;;;;;;5042207;28;20033;-52
2022/03/27 09:48:24;;;;;;;6.72;3.80;;;;;;;;;;5037030;28;20117;-47
2022/03/27 09:50:52;;;;;;;6.05;4.13;;;;;;;;;;5047892;28;20060;-48
2022/03/27 09:53:29;;;;;;;7.80;4.30;;;;;;;;;;5052069;28;20489;-48
2022/03/27 09:56:01;;;;;;;8.15;4.57;;;;;;;;;;5042732;28;20445;-48
2022/03/27 09:58:43;;;;;;;6.65;4.18;;;;;;;;;;5040745;28;20028;-50
2022/03/27 10:01:12;;;;;;;4.90;3.30;;;;;;;;;;5039606;28;20030;-48
2022/03/27 10:04:00;;;;;;;4.95;3.42;;;;;;;;;;5038190;28;20025;-49
2022/03/27 10:06:26;;;;;;;6.25;3.70;;;;;;;;;;5042227;28;20029;-48
2022/03/27 10:08:52;;;;;;;4.75;3.58;;;;;;;;;;5045336;28;20025;-47
2022/03/27 10:11:21;;;;;;;6.63;3.75;;;;;;;;;;5042152;28;20368;-50
2022/03/27 10:13:47;;;;;;;5.72;3.30;;;;;;;;;;5040281;28;20138;-47
2022/03/27 10:16:14;;;;;;;5.07;3.60;;;;;;;;;;5041964;28;20041;-48
2022/03/27 10:18:41;;;;;;;4.75;3.20;;;;;;;;;;5042948;28;20022;-47
2022/03/27 10:21:07;;;;;;;5.18;3.08;;;;;;;;;;5037471;28;20087;-48
2022/03/27 10:23:34;;;;;;;4.85;2.85;;;;;;;;;;5037816;28;20029;-47
2022/03/27 10:26:02;;;;;;;4.30;2.78;;;;;;;;;;5040837;28;20072;-47
2022/03/27 10:28:29;;;;;;;4.93;3.13;;;;;;;;;;5041400;28;20030;-47
2022/03/27 10:30:55;;;;;;;4.32;2.75;;;;;;;;;;5041788;28;20074;-49
2022/03/27 10:33:25;;;;;;;5.90;3.42;;;;;;;;;;5038710;28;20030;-47
2022/03/27 10:36:10;;;;;;;5.78;3.40;;;;;;;;;;5045913;28;20112;-48
2022/03/27 10:38:54;;;;;;;6.40;3.10;;;;;;;;;;5035277;28;20029;-48
2022/03/27 10:41:23;;;;;;;4.30;2.67;;;;;;;;;;5036465;28;20029;-48
2022/03/27 10:44:18;;;;;;;5.43;3.33;;;;;;;;;;5039318;28;20029;-47
2022/03/27 10:46:46;;;;;;;6.57;2.72;;;;;;;;;;5048286;28;20031;-47
2022/03/27 10:49:13;;;;;;;3.47;2.50;;;;;;;;;;5036346;28;20025;-49
2022/03/27 10:51:44;;;;;;;5.32;3.30;;;;;;;;;;5034959;28;20401;-49
2022/03/27 10:54:14;;;;;;;3.95;2.55;;;;;;;;;;5036943;28;20049;-51
2022/03/27 10:56:44;;;;;;;4.68;2.78;;;;;;;;;;5040759;28;20072;-48
2022/03/27 10:59:20;;;;;;;4.47;2.65;;;;;;;;;;5040057;28;20386;-50
2022/03/27 11:01:50;;;;;;;4.68;2.20;;;;;;;;;;5039935;28;20032;-50
2022/03/27 11:04:18;;;;;;;3.72;2.38;;;;;;;;;;5040587;28;20083;-47
2022/03/27 11:06:45;;;;;;;3.58;1.85;;;;;;;;;;5042403;28;20040;-50
2022/03/27 11:09:15;;;;;;;3.38;2.08;;;;;;;;;;5045364;28;20052;-50
2022/03/27 11:11:44;;;;;;;3.00;2.55;;;;;;;;;;5037821;28;20029;-48
2022/03/27 11:14:10;;;;;;;6.70;2.40;;;;;;;;;;5035088;28;20032;-49
2022/03/27 11:16:55;;;;;;;4.82;2.42;;;;;;;;;;5040976;28;20036;-49
2022/03/27 11:19:40;;;;;;;3.08;2.30;;;;;;;;;;5040800;28;20111;-49
2022/03/27 11:22:06;;;;;;;3.08;1.98;;;;;;;;;;5045662;28;20040;-47
2022/03/27 11:24:32;;;;;;;4.07;2.35;;;;;;;;;;5041175;28;20045;-50
2022/03/27 11:26:58;;;;;;;4.07;2.10;;;;;;;;;;5040858;28;20033;-47
2022/03/27 11:29:25;;;;;;;4.18;2.20;;;;;;;;;;5038895;28;20034;-50
2022/03/27 11:32:08;;;;;;;4.32;2.38;;;;;;;;;;5044356;28;20422;-50
2022/03/27 11:34:34;;;;;;;;;;;;;;;;;;5046733;28;20024;-47
2022/03/27 11:37:29;;;;;;;4.88;2.00;;;;;;;;;;5039751;28;19924;-48
2022/03/27 11:39:55;;;;;;;3.00;1.80;;;;;;;;;;5034679;28;20036;-48
2022/03/27 11:42:30;;;;;;;3.63;2.15;;;;;;;;;;5033388;28;20545;-48
2022/03/27 11:45:06;;;;;;;3.60;1.58;;;;;;;;;;5041817;28;20121;-53
2022/03/27 11:47:40;;;;;;;3.22;2.22;;;;;;;;;;5033395;28;20020;-48
2022/03/27 11:50:07;;;;;;;2.72;1.67;;;;;;;;;;5041466;28;20439;-47
2022/03/27 11:52:34;;;;;;;2.47;1.52;;;;;;;;;;5048831;28;20444;-47
2022/03/27 11:55:10;;;;;;;2.90;1.58;;;;;;;;;;5042709;28;20125;-47
2022/03/27 11:57:43;;;;;;;2.50;1.85;;;;;;;;;;5050241;28;20033;-47
2022/03/27 12:00:11;;;;;;;2.38;1.65;;;;;;;;;;5043177;28;20061;-47
2022/03/27 12:02:41;;;;;;;3.50;2.15;;;;;;;;;;5030182;28;20056;-50
2022/03/27 12:05:07;;;;;;;2.83;1.90;;;;;;;;;;5039913;28;20044;-51
2022/03/27 12:07:52;;;;;;;4.00;1.92;;;;;;;;;;5044100;28;20447;-53
2022/03/27 12:10:18;;;;;;;2.72;1.60;;;;;;;;;;5039045;28;20414;-47
2022/03/27 12:12:57;;;;;;;3.42;1.77;;;;;;;;;;5038034;28;20409;-52
2022/03/27 12:15:23;;;;;;;1.73;1.25;;;;;;;;;;5033842;28;20017;-52
2022/03/27 12:17:49;;;;;;;2.47;1.20;;;;;;;;;;5042259;28;20083;-50
2022/03/27 12:20:15;;;;;;;1.75;1.33;;;;;;;;;;5047018;28;20025;-49
2022/03/27 12:22:45;;;;;;;2.30;1.27;;;;;;;;;;5048491;28;20033;-47
2022/03/27 12:25:26;;;;;;;2.47;1.50;;;;;;;;;;5042526;28;20034;-49
2022/03/27 12:30:44;;;;;;;2.50;1.58;;;;;;;;;;5050998;28;20060;-48
2022/03/27 12:33:10;;;;;;;3.58;1.77;;;;;;;;;;5048727;28;20036;-47
2022/03/27 12:35:36;;;;;;;1.85;1.30;;;;;;;;;;5050262;28;20118;-50
2022/03/27 12:38:02;;;;;;;1.83;1.30;;;;;;;;;;5040843;28;20029;-49
2022/03/27 12:40:29;;;;;;;2.53;1.60;;;;;;;;;;5036309;28;20462;-49
2022/03/27 12:42:56;;;;;;;2.00;1.17;;;;;;;;;;5040419;28;20026;-50
2022/03/27 12:45:32;;;;;;;3.00;1.60;;;;;;;;;;5042170;28;20036;-49
2022/03/27 12:48:03;;;;;;;2.15;1.58;;;;;;;;;;5037272;28;20033;-53
2022/03/27 12:50:29;;;;;;;3.85;1.33;;;;;;;;;;5043726;28;20099;-50
2022/03/27 12:53:04;;;;;;;2.50;1.33;;;;;;;;;;5047761;28;20075;-49
2022/03/27 12:55:49;;;;;;;1.60;1.25;;;;;;;;;;5056736;28;20149;-53
2022/03/27 12:58:16;;;;;;;2.75;1.27;;;;;;;;;;5051482;28;20033;-48
2022/03/27 13:00:44;;;;;;;3.28;1.23;;;;;;;;;;5052335;28;20437;-50
2022/03/27 13:03:10;;;;;;;1.55;1.15;;;;;;;;;;5047502;28;20036;-49
2022/03/27 13:05:36;;;;;;;1.73;1.08;;;;;;;;;;5043081;28;20051;-48
2022/03/27 13:08:03;;;;;;;1.88;1.10;;;;;;;;;;5038808;28;20462;-48
2022/03/27 13:10:29;;;;;;;1.85;1.02;;;;;;;;;;5038853;28;20021;-49
2022/03/27 13:12:56;;;;;;;1.10;0.70;;;;;;;;;;5044020;28;20035;-52
2022/03/27 13:15:36;;;;;;;2.25;1.15;;;;;;;;;;5053520;28;20052;-53
2022/03/27 13:18:05;;;;;;;1.90;1.13;;;;;;;;;;5037225;28;20078;-53
2022/03/27 13:20:33;;;;;;;1.85;1.15;;;;;;;;;;5041990;28;20032;-53
2022/03/27 13:22:59;;;;;;;2.42;1.30;;;;;;;;;;5042122;28;20022;-53
2022/03/27 13:25:25;;;;;;;1.83;1.20;;;;;;;;;;5045726;28;20048;-50
2022/03/27 13:27:51;;;;;;;4.55;0.95;;;;;;;;;;5044374;28;20041;-51
2022/03/27 13:30:17;;;;;;;1.85;1.20;;;;;;;;;;5037331;28;20025;-48
2022/03/27 13:32:43;;;;;;;1.77;1.05;;;;;;;;;;5039911;28;20048;-48
2022/03/27 13:35:09;;;;;;;1.88;1.17;;;;;;;;;;5042928;28;20112;-48
2022/03/27 13:37:35;;;;;;;2.60;1.48;;;;;;;;;;5054969;28;20373;-48
2022/03/27 13:40:01;;;;;;;2.28;1.40;;;;;;;;;;5049414;28;20029;-48
2022/03/27 13:45:11;;;;;;;2.67;1.20;;;;;;;;;;5036317;28;20041;-48
2022/03/27 13:47:37;;;;;;;2.47;1.00;;;;;;;;;;5038015;28;20025;-50
2022/03/27 13:50:03;;;;;;;2.33;1.33;;;;;;;;;;5047971;28;20037;-48
2022/03/27 13:52:29;;;;;;;2.10;1.20;;;;;;;;;;5045623;28;20033;-47
2022/03/27 13:54:55;;;;;;;1.40;0.98;;;;;;;;;;5040692;28;20051;-53
2022/03/27 13:57:22;;;;;;;1.63;1.05;;;;;;;;;;5039931;28;20108;-50
2022/03/27 13:59:48;;;;;;;2.15;0.50;;;;;;;;;;5045343;28;20435;-49
2022/03/27 14:02:14;;;;;;;5.93;1.10;;;;;;;;;;5041116;28;20036;-49
2022/03/27 14:04:40;;;;;;;1.85;0.85;;;;;;;;;;5042847;28;20060;-49
2022/03/27 14:07:07;;;;;;;2.25;0.85;;;;;;;;;;5052606;28;20365;-54
2022/03/27 14:09:34;;;;;;;1.95;0.90;;;;;;;;;;5040880;28;20116;-48
2022/03/27 14:12:00;;;;;;;1.55;0.80;;;;;;;;;;5035140;28;20058;-48
2022/03/27 14:14:26;;;;;;;2.88;1.20;;;;;;;;;;5039855;28;20025;-51
2022/03/27 14:16:53;;;;;;;2.03;1.08;;;;;;;;;;5043930;28;20461;-48
2022/03/27 14:19:19;;;;;;;2.30;1.13;;;;;;;;;;5038929;28;20034;-50
2022/03/27 14:21:46;;;;;;;1.45;0.85;;;;;;;;;;5048583;28;20070;-50
2022/03/27 14:24:12;;;;;;;1.90;1.20;;;;;;;;;;5042131;28;20473;-50
2022/03/27 14:26:38;;;;;;;2.30;1.00;;;;;;;;;;5035284;28;20033;-51
2022/03/27 14:29:04;;;;;;;1.65;1.17;;;;;;;;;;5037691;28;20117;-53
2022/03/27 14:31:30;;;;;;;1.83;1.10;;;;;;;;;;5047503;28;20037;-54
2022/03/27 14:33:56;;;;;;;2.35;0.93;;;;;;;;;;5051772;28;20029;-52
2022/03/27 14:36:22;;;;;;;2.95;1.10;;;;;;;;;;5052267;28;20029;-52
2022/03/27 14:38:48;;;;;;;2.42;1.20;;;;;;;;;;5052930;28;20024;-50
2022/03/27 14:41:15;;;;;;;2.40;1.10;;;;;;;;;;5046062;28;20032;-53
2022/03/27 14:43:41;;;;;;;3.00;1.45;;;;;;;;;;5042796;28;20509;-48